Willie Reed #33 | Saint Louis Billikens

2009-2010 Game Log | Main Player Page

Date vs. Score Line O/U Min Pts Ast Reb Blk T/S
3/31/10 VCU L 65-71 L 1 O 128 29:00 16 1 6 3 1/0
3/29/10 @ VCU L 56-68 L 9 U 130 19:00 11 2 6 0 2/1
3/24/10 PRINC W 69-59 W -4 O 105 27:00 20 0 10 1 0/1
3/22/10 WIGB W 68-62 (OT) L -6.5 O 120 34:00 21 2 10 2 1/0
3/16/10 INDST W 63-54 W -7.5 U 119 25:00 17 0 8 4 1/0
3/12/10 RI L 47-63 L 3.5 U 129.5 29:00 7 0 6 3 1/1
3/6/10 @ DAYT W 71-66 W 11 O 117.5 19:00 5 1 6 2 1/0
3/3/10 TEMP L 51-57 L 2.5 U 113 27:00 16 0 4 0 0/0
2/27/10 DUQ W 69-59 W -4.5 U 129 31:00 10 1 4 4 2/2
2/24/10 XAVER L 71-73 W 4.5 O 128.5 31:00 18 0 13 4 1/0
2/21/10 @ UMASS W 69-56 W 1.5 U 128 25:00 14 0 7 3 2/0
2/17/10 RI W 62-57 W 2.5 U 133 29:00 10 0 9 2 2/2
2/13/10 DAYT W 68-65 (OT) W 5 O 118.5 28:00 2 0 7 1 3/1
2/9/10 @ STJOE W 56-52 W 1.5 U 128.5 25:00 7 0 9 3 3/0
2/6/10 @ LASAL W 68-65 W 4 O 127.5 34:00 21 0 8 1 1/1
2/3/10 STBON W 67-65 L -5.5 O 125 33:00 11 2 11 4 4/0
1/30/10 @ RICH L 36-62 L 7.5 U 117 17:00 10 0 4 1 2/0
1/27/10 @ GW L 62-67 (OT) L 4.5 O 123.5 29:00 7 4 6 2 3/0
1/20/10 FORD W 75-48 W -17 U 128.5 17:00 10 2 6 0 2/1
1/17/10 @ CHAR L 61-63 (OT) W 8.5 U 130 30:00 10 3 9 4 1/0
1/13/10 @ DUQ W 79-75 (OT) W 7 O 123.5 28:00 9 0 4 1 2/0
1/2/10 @ BGRN L 50-59 L PK U 119 16:00 4 0 0 0 3/0
12/29/09 EILL W 60-42 W -10 U 118 23:00 13 2 5 3 2/0
12/22/09 UMKC W 61-54 - - - - 31:00 3 1 5 1 1/1
12/19/09 SMS L 63-73 L 1 O 121 35:00 19 2 8 2 4/1
12/16/09 BELM W 75-67 - - - - 20:00 16 0 9 3 1/1
12/12/09 RH W 66-53 - - - - 32:00 16 0 13 1 1/1
12/5/09 SOILL W 71-61 W PK O 123.5 34:00 16 0 12 4 1/1
12/2/09 @ GEOR L 56-64 L 3 O 119 32:00 14 0 8 3 2/4
11/28/09 NOTRE L 52-64 L 9 U 133 32:00 20 0 15 0 1/3
11/27/09 @ IAST L 54-65 L 8.5 - - 33:00 14 1 13 1 3/2
11/24/09 MSVAS W 75-39 - - - - 23:00 17 2 4 1 1/0
11/22/09 KENST W 76-66 - - - - 31:00 9 1 12 5 2/0
11/18/09 NEB W 69-55 W 2 - - 26:00 7 0 9 1 0/0
11/14/09 SEMST W 59-41 P -18 - - 28:00 15 0 12 3 3/2